This is the latest recevied weather packets stored in our database for station/object IU2PLZ-10. If no packets are shown the sender has not sent any weather packets the latest 10 day(s).
| Time | Temp. | Humidity | Pressure | Rain* | Wind** | Luminosity | Snow |
|---|---|---|---|---|---|---|---|
| 1777587388 | 18.33° C | 63% | 965.6 hPa | - | - | - | - |
| 1777586488 | 18.33° C | 62% | 965.5 hPa | - | - | - | - |
| 1777585588 | 18.89° C | 61% | 966.3 hPa | - | - | - | - |
| 1777584688 | 19.44° C | 61% | 966.1 hPa | - | - | - | - |
| 1777583788 | 18.89° C | 62% | 966.2 hPa | - | - | - | - |
| 1777582887 | 19.44° C | 61% | 966 hPa | - | - | - | - |
| 1777581987 | 19.44° C | 61% | 966 hPa | - | - | - | - |
| 1777581087 | 18.89° C | 61% | 965.4 hPa | - | - | - | - |
| 1777580187 | 18.89° C | 61% | 965.2 hPa | - | - | - | - |
| 1777579287 | 20° C | 60% | 965.9 hPa | - | - | - | - |
| 1777578386 | 19.44° C | 59% | 965.2 hPa | - | - | - | - |
| 1777577486 | 20° C | 60% | 965.5 hPa | - | - | - | - |
| 1777576586 | 20.56° C | 59% | 965.3 hPa | - | - | - | - |
| 1777575686 | 20.56° C | 58% | 965.4 hPa | - | - | - | - |
| 1777574786 | 21.11° C | 57% | 965.2 hPa | - | - | - | - |
| 1777573886 | 21.11° C | 55% | 964.3 hPa | - | - | - | - |
| 1777572985 | 21.67° C | 53% | 965 hPa | - | - | - | - |
| 1777572085 | 21.67° C | 53% | 964.2 hPa | - | - | - | - |
| 1777571185 | 22.78° C | 52% | 964.8 hPa | - | - | - | - |
| 1777570285 | 22.78° C | 52% | 964.8 hPa | - | - | - | - |
| 1777569385 | 22.78° C | 50% | 963.7 hPa | - | - | - | - |
| 1777568485 | 23.33° C | 49% | 964.5 hPa | - | - | - | - |
| 1777567584 | 23.33° C | 45% | 963.5 hPa | - | - | - | - |
| 1777566684 | 24.44° C | 41% | 964.3 hPa | - | - | - | - |
| 1777565784 | 24.44° C | 40% | 964.4 hPa | - | - | - | - |
* Rain since midnight (hover to see other rain measurements)
** Current wind speed in m/s (hover to see current wind gust speed)